sensor_id;sensor_type;location;lat;lon;timestamp;P1;durP1;ratioP1;P2;durP2;ratioP2
72115;SDS011;59991;52.140;5.428;2022-08-11T00:01:26;3.70;;;2.05;;
72115;SDS011;59991;52.140;5.428;2022-08-11T00:02:00;7.13;;;2.80;;
72115;SDS011;59991;52.140;5.428;2022-08-11T00:02:33;3.28;;;2.75;;
72115;SDS011;59991;52.140;5.428;2022-08-11T00:03:25;3.53;;;2.63;;
72115;SDS011;59991;52.140;5.428;2022-08-11T00:04:14;4.80;;;2.50;;
72115;SDS011;59991;52.140;5.428;2022-08-11T00:04:48;8.15;;;2.42;;
72115;SDS011;59991;52.140;5.428;2022-08-11T00:05:20;4.00;;;1.90;;
72115;SDS011;59991;52.140;5.428;2022-08-11T00:05:53;4.03;;;2.10;;
72115;SDS011;59991;52.140;5.428;2022-08-11T00:06:30;2.78;;;2.58;;
72115;SDS011;59991;52.140;5.428;2022-08-11T00:07:04;4.18;;;2.63;;
72115;SDS011;59991;52.140;5.428;2022-08-11T00:07:56;3.50;;;2.15;;
72115;SDS011;59991;52.140;5.428;2022-08-11T00:08:29;2.95;;;2.20;;
72115;SDS011;59991;52.140;5.428;2022-08-11T00:09:04;2.47;;;2.28;;
72115;SDS011;59991;52.140;5.428;2022-08-11T00:10:29;3.67;;;2.28;;
72115;SDS011;59991;52.140;5.428;2022-08-11T00:11:57;3.20;;;2.90;;
72115;SDS011;59991;52.140;5.428;2022-08-11T00:12:31;4.18;;;2.55;;
72115;SDS011;59991;52.140;5.428;2022-08-11T00:13:04;2.97;;;2.25;;
72115;SDS011;59991;52.140;5.428;2022-08-11T00:13:38;3.35;;;2.65;;
72115;SDS011;59991;52.140;5.428;2022-08-11T00:14:54;2.90;;;2.08;;
72115;SDS011;59991;52.140;5.428;2022-08-11T00:15:36;2.40;;;2.20;;
72115;SDS011;59991;52.140;5.428;2022-08-11T00:16:20;6.28;;;2.40;;
72115;SDS011;59991;52.140;5.428;2022-08-11T00:16:56;4.55;;;2.22;;
72115;SDS011;59991;52.140;5.428;2022-08-11T00:17:31;3.53;;;2.10;;
72115;SDS011;59991;52.140;5.428;2022-08-11T00:18:04;3.00;;;2.03;;
72115;SDS011;59991;52.140;5.428;2022-08-11T00:18:55;5.25;;;2.45;;
72115;SDS011;59991;52.140;5.428;2022-08-11T00:20:06;4.60;;;2.55;;
72115;SDS011;59991;52.140;5.428;2022-08-11T00:20:45;3.47;;;2.60;;
72115;SDS011;59991;52.140;5.428;2022-08-11T00:21:19;2.40;;;2.20;;
72115;SDS011;59991;52.140;5.428;2022-08-11T00:22:12;2.67;;;2.20;;
72115;SDS011;59991;52.140;5.428;2022-08-11T00:22:51;2.25;;;1.90;;
72115;SDS011;59991;52.140;5.428;2022-08-11T00:23:23;2.47;;;2.28;;
72115;SDS011;59991;52.140;5.428;2022-08-11T00:23:56;2.58;;;2.38;;
72115;SDS011;59991;52.140;5.428;2022-08-11T00:24:48;2.97;;;2.78;;
72115;SDS011;59991;52.140;5.428;2022-08-11T00:25:27;3.13;;;2.20;;
72115;SDS011;59991;52.140;5.428;2022-08-11T00:26:18;3.22;;;2.42;;
72115;SDS011;59991;52.140;5.428;2022-08-11T00:27:08;3.30;;;2.50;;
72115;SDS011;59991;52.140;5.428;2022-08-11T00:27:44;2.95;;;2.58;;
72115;SDS011;59991;52.140;5.428;2022-08-11T00:28:35;3.08;;;2.83;;
72115;SDS011;59991;52.140;5.428;2022-08-11T00:29:07;4.40;;;2.70;;
72115;SDS011;59991;52.140;5.428;2022-08-11T00:29:58;3.10;;;2.25;;
72115;SDS011;59991;52.140;5.428;2022-08-11T00:30:37;4.18;;;2.75;;
72115;SDS011;59991;52.140;5.428;2022-08-11T00:31:10;5.13;;;2.53;;
72115;SDS011;59991;52.140;5.428;2022-08-11T00:31:53;3.50;;;2.92;;
72115;SDS011;59991;52.140;5.428;2022-08-11T00:32:25;3.57;;;2.70;;
72115;SDS011;59991;52.140;5.428;2022-08-11T00:32:58;4.32;;;2.75;;
72115;SDS011;59991;52.140;5.428;2022-08-11T00:34:16;3.78;;;3.22;;
72115;SDS011;59991;52.140;5.428;2022-08-11T00:34:51;6.93;;;3.15;;
72115;SDS011;59991;52.140;5.428;2022-08-11T00:35:44;3.25;;;2.20;;
72115;SDS011;59991;52.140;5.428;2022-08-11T00:36:28;2.78;;;2.47;;
72115;SDS011;59991;52.140;5.428;2022-08-11T00:37:09;3.08;;;2.60;;
72115;SDS011;59991;52.140;5.428;2022-08-11T00:37:48;5.32;;;2.33;;
72115;SDS011;59991;52.140;5.428;2022-08-11T00:38:22;3.05;;;2.50;;
72115;SDS011;59991;52.140;5.428;2022-08-11T00:39:15;4.07;;;2.97;;
72115;SDS011;59991;52.140;5.428;2022-08-11T00:40:57;3.33;;;2.60;;
72115;SDS011;59991;52.140;5.428;2022-08-11T00:41:52;4.65;;;2.70;;
72115;SDS011;59991;52.140;5.428;2022-08-11T00:44:28;3.63;;;2.63;;
72115;SDS011;59991;52.140;5.428;2022-08-11T00:45:13;7.85;;;2.55;;
72115;SDS011;59991;52.140;5.428;2022-08-11T00:48:00;3.70;;;2.70;;
72115;SDS011;59991;52.140;5.428;2022-08-11T00:48:59;3.63;;;2.53;;
72115;SDS011;59991;52.140;5.428;2022-08-11T00:51:09;3.10;;;2.78;;
72115;SDS011;59991;52.140;5.428;2022-08-11T00:51:53;3.65;;;3.13;;
72115;SDS011;59991;52.140;5.428;2022-08-11T00:53:01;3.45;;;2.50;;
72115;SDS011;59991;52.140;5.428;2022-08-11T00:53:45;3.38;;;2.92;;
72115;SDS011;59991;52.140;5.428;2022-08-11T00:54:38;2.95;;;2.17;;
72115;SDS011;59991;52.140;5.428;2022-08-11T00:57:30;3.88;;;2.08;;
72115;SDS011;59991;52.140;5.428;2022-08-11T01:02:05;3.63;;;3.05;;
72115;SDS011;59991;52.140;5.428;2022-08-11T01:05:06;2.80;;;2.60;;
72115;SDS011;59991;52.140;5.428;2022-08-11T01:10:54;3.70;;;3.40;;
72115;SDS011;59991;52.140;5.428;2022-08-11T01:11:37;6.05;;;3.58;;
72115;SDS011;59991;52.140;5.428;2022-08-11T01:12:35;3.55;;;3.25;;
72115;SDS011;59991;52.140;5.428;2022-08-11T01:13:17;4.18;;;2.58;;
72115;SDS011;59991;52.140;5.428;2022-08-11T01:14:29;3.42;;;3.13;;
72115;SDS011;59991;52.140;5.428;2022-08-11T01:23:21;3.67;;;3.38;;
72115;SDS011;59991;52.140;5.428;2022-08-11T01:35:02;4.78;;;2.70;;
72115;SDS011;59991;52.140;5.428;2022-08-11T01:36:23;4.77;;;2.97;;
72115;SDS011;59991;52.140;5.428;2022-08-11T01:37:29;5.35;;;2.70;;
72115;SDS011;59991;52.140;5.428;2022-08-11T01:46:16;5.20;;;3.40;;
72115;SDS011;59991;52.140;5.428;2022-08-11T01:50:36;3.45;;;3.10;;
72115;SDS011;59991;52.140;5.428;2022-08-11T01:52:19;3.20;;;3.00;;
72115;SDS011;59991;52.140;5.428;2022-08-11T01:53:57;4.57;;;3.25;;
72115;SDS011;59991;52.140;5.428;2022-08-11T01:54:41;3.70;;;3.33;;
72115;SDS011;59991;52.140;5.428;2022-08-11T01:59:16;9.10;;;3.80;;
72115;SDS011;59991;52.140;5.428;2022-08-11T02:00:09;3.90;;;3.30;;
72115;SDS011;59991;52.140;5.428;2022-08-11T02:00:53;4.38;;;3.17;;
72115;SDS011;59991;52.140;5.428;2022-08-11T02:02:17;3.88;;;3.42;;
72115;SDS011;59991;52.140;5.428;2022-08-11T02:03:16;4.53;;;3.40;;
72115;SDS011;59991;52.140;5.428;2022-08-11T02:04:40;4.40;;;2.95;;
72115;SDS011;59991;52.140;5.428;2022-08-11T02:05:26;6.53;;;4.78;;
72115;SDS011;59991;52.140;5.428;2022-08-11T02:06:19;3.47;;;3.17;;
72115;SDS011;59991;52.140;5.428;2022-08-11T02:07:23;3.97;;;3.20;;
72115;SDS011;59991;52.140;5.428;2022-08-11T02:09:09;4.75;;;3.30;;
72115;SDS011;59991;52.140;5.428;2022-08-11T02:11:26;4.53;;;2.95;;
72115;SDS011;59991;52.140;5.428;2022-08-11T02:12:09;5.22;;;3.08;;
72115;SDS011;59991;52.140;5.428;2022-08-11T02:12:49;3.87;;;3.57;;
72115;SDS011;59991;52.140;5.428;2022-08-11T02:13:52;4.18;;;3.00;;
72115;SDS011;59991;52.140;5.428;2022-08-11T02:14:40;4.57;;;2.85;;
72115;SDS011;59991;52.140;5.428;2022-08-11T02:15:37;4.03;;;3.70;;
72115;SDS011;59991;52.140;5.428;2022-08-11T02:16:25;3.88;;;3.58;;
72115;SDS011;59991;52.140;5.428;2022-08-11T02:17:13;4.25;;;3.13;;
72115;SDS011;59991;52.140;5.428;2022-08-11T02:18:03;4.32;;;3.00;;
72115;SDS011;59991;52.140;5.428;2022-08-11T02:18:43;4.18;;;3.25;;
72115;SDS011;59991;52.140;5.428;2022-08-11T02:20:51;3.47;;;3.10;;
72115;SDS011;59991;52.140;5.428;2022-08-11T02:21:49;4.67;;;3.73;;
72115;SDS011;59991;52.140;5.428;2022-08-11T02:24:10;3.45;;;3.25;;
72115;SDS011;59991;52.140;5.428;2022-08-11T02:24:48;5.68;;;3.80;;
72115;SDS011;59991;52.140;5.428;2022-08-11T02:26:47;7.97;;;3.45;;
72115;SDS011;59991;52.140;5.428;2022-08-11T02:27:35;5.43;;;4.20;;
72115;SDS011;59991;52.140;5.428;2022-08-11T02:28:32;4.80;;;4.40;;
72115;SDS011;59991;52.140;5.428;2022-08-11T02:29:22;3.83;;;3.50;;
72115;SDS011;59991;52.140;5.428;2022-08-11T02:30:03;4.10;;;3.30;;
72115;SDS011;59991;52.140;5.428;2022-08-11T02:30:40;3.80;;;3.40;;
72115;SDS011;59991;52.140;5.428;2022-08-11T02:33:18;4.53;;;3.60;;
72115;SDS011;59991;52.140;5.428;2022-08-11T02:34:19;4.57;;;3.20;;
72115;SDS011;59991;52.140;5.428;2022-08-11T02:35:03;3.40;;;2.80;;
72115;SDS011;59991;52.140;5.428;2022-08-11T02:35:56;3.95;;;3.47;;
72115;SDS011;59991;52.140;5.428;2022-08-11T02:37:13;6.05;;;3.25;;
72115;SDS011;59991;52.140;5.428;2022-08-11T02:39:19;4.10;;;3.75;;
72115;SDS011;59991;52.140;5.428;2022-08-11T02:40:59;3.77;;;3.43;;
72115;SDS011;59991;52.140;5.428;2022-08-11T02:43:16;3.67;;;3.38;;
72115;SDS011;59991;52.140;5.428;2022-08-11T02:46:24;4.13;;;3.83;;
72115;SDS011;59991;52.140;5.428;2022-08-11T02:50:30;4.85;;;3.33;;
72115;SDS011;59991;52.140;5.428;2022-08-11T02:52:07;5.80;;;3.55;;
72115;SDS011;59991;52.140;5.428;2022-08-11T02:53:43;4.47;;;4.07;;
72115;SDS011;59991;52.140;5.428;2022-08-11T02:54:31;5.15;;;4.38;;
72115;SDS011;59991;52.140;5.428;2022-08-11T02:55:15;5.03;;;3.55;;
72115;SDS011;59991;52.140;5.428;2022-08-11T02:57:52;5.70;;;4.20;;
72115;SDS011;59991;52.140;5.428;2022-08-11T02:58:35;4.13;;;3.78;;
72115;SDS011;59991;52.140;5.428;2022-08-11T02:59:32;4.47;;;3.67;;
72115;SDS011;59991;52.140;5.428;2022-08-11T03:00:22;3.40;;;3.05;;
72115;SDS011;59991;52.140;5.428;2022-08-11T03:01:58;5.72;;;4.38;;
72115;SDS011;59991;52.140;5.428;2022-08-11T03:03:33;6.15;;;4.18;;
72115;SDS011;59991;52.140;5.428;2022-08-11T03:04:20;6.00;;;4.00;;
72115;SDS011;59991;52.140;5.428;2022-08-11T03:06:03;8.77;;;4.15;;
72115;SDS011;59991;52.140;5.428;2022-08-11T03:06:43;5.35;;;3.55;;
72115;SDS011;59991;52.140;5.428;2022-08-11T03:07:40;4.83;;;3.67;;
72115;SDS011;59991;52.140;5.428;2022-08-11T03:10:13;6.53;;;4.18;;
72115;SDS011;59991;52.140;5.428;2022-08-11T03:11:03;4.10;;;3.70;;
72115;SDS011;59991;52.140;5.428;2022-08-11T03:13:21;4.65;;;3.83;;
72115;SDS011;59991;52.140;5.428;2022-08-11T03:14:28;7.45;;;4.40;;
72115;SDS011;59991;52.140;5.428;2022-08-11T03:15:28;11.52;;;4.28;;
72115;SDS011;59991;52.140;5.428;2022-08-11T03:16:36;6.88;;;4.65;;
72115;SDS011;59991;52.140;5.428;2022-08-11T03:17:24;6.87;;;4.53;;
72115;SDS011;59991;52.140;5.428;2022-08-11T03:18:03;4.40;;;4.00;;
72115;SDS011;59991;52.140;5.428;2022-08-11T03:21:25;5.93;;;3.65;;
72115;SDS011;59991;52.140;5.428;2022-08-11T03:22:28;6.57;;;4.78;;
72115;SDS011;59991;52.140;5.428;2022-08-11T03:23:58;4.00;;;3.53;;
72115;SDS011;59991;52.140;5.428;2022-08-11T03:26:57;4.53;;;3.70;;
72115;SDS011;59991;52.140;5.428;2022-08-11T03:28:27;5.78;;;4.10;;
72115;SDS011;59991;52.140;5.428;2022-08-11T03:29:10;5.75;;;4.53;;
72115;SDS011;59991;52.140;5.428;2022-08-11T03:30:03;5.18;;;3.88;;
72115;SDS011;59991;52.140;5.428;2022-08-11T03:31:24;4.72;;;4.32;;
72115;SDS011;59991;52.140;5.428;2022-08-11T03:34:23;4.47;;;3.58;;
72115;SDS011;59991;52.140;5.428;2022-08-11T03:34:56;4.80;;;4.20;;
72115;SDS011;59991;52.140;5.428;2022-08-11T03:35:32;5.65;;;4.82;;
72115;SDS011;59991;52.140;5.428;2022-08-11T03:36:19;4.82;;;4.43;;
72115;SDS011;59991;52.140;5.428;2022-08-11T03:38:07;4.70;;;3.97;;
72115;SDS011;59991;52.140;5.428;2022-08-11T03:39:05;4.35;;;3.95;;
72115;SDS011;59991;52.140;5.428;2022-08-11T03:39:44;9.40;;;3.92;;
72115;SDS011;59991;52.140;5.428;2022-08-11T03:40:48;4.40;;;3.80;;
72115;SDS011;59991;52.140;5.428;2022-08-11T03:43:23;4.07;;;3.67;;
72115;SDS011;59991;52.140;5.428;2022-08-11T03:44:11;7.73;;;4.57;;
72115;SDS011;59991;52.140;5.428;2022-08-11T03:46:15;7.28;;;4.07;;
72115;SDS011;59991;52.140;5.428;2022-08-11T03:47:15;6.15;;;4.05;;
72115;SDS011;59991;52.140;5.428;2022-08-11T03:49:35;7.15;;;4.55;;
72115;SDS011;59991;52.140;5.428;2022-08-11T03:52:25;5.10;;;4.68;;
72115;SDS011;59991;52.140;5.428;2022-08-11T03:54:15;8.23;;;4.15;;
72115;SDS011;59991;52.140;5.428;2022-08-11T03:55:08;5.97;;;4.10;;
72115;SDS011;59991;52.140;5.428;2022-08-11T03:56:53;5.10;;;4.68;;
72115;SDS011;59991;52.140;5.428;2022-08-11T04:08:46;6.60;;;4.32;;
72115;SDS011;59991;52.140;5.428;2022-08-11T04:14:25;4.32;;;3.88;;
72115;SDS011;59991;52.140;5.428;2022-08-11T04:16:43;5.07;;;4.57;;
72115;SDS011;59991;52.140;5.428;2022-08-11T04:18:49;5.30;;;4.10;;
72115;SDS011;59991;52.140;5.428;2022-08-11T04:20:48;5.70;;;4.88;;
72115;SDS011;59991;52.140;5.428;2022-08-11T04:24:57;4.97;;;4.50;;
72115;SDS011;59991;52.140;5.428;2022-08-11T04:25:48;5.35;;;4.85;;
72115;SDS011;59991;52.140;5.428;2022-08-11T04:26:40;4.47;;;4.00;;
72115;SDS011;59991;52.140;5.428;2022-08-11T04:29:55;7.28;;;3.95;;
72115;SDS011;59991;52.140;5.428;2022-08-11T04:31:36;5.68;;;4.75;;
72115;SDS011;59991;52.140;5.428;2022-08-11T04:32:30;5.03;;;4.03;;
72115;SDS011;59991;52.140;5.428;2022-08-11T04:33:33;7.57;;;4.50;;
72115;SDS011;59991;52.140;5.428;2022-08-11T04:37:09;5.43;;;4.65;;
72115;SDS011;59991;52.140;5.428;2022-08-11T04:41:04;6.60;;;5.00;;
72115;SDS011;59991;52.140;5.428;2022-08-11T04:41:57;5.20;;;4.65;;
72115;SDS011;59991;52.140;5.428;2022-08-11T04:47:50;5.35;;;4.85;;
72115;SDS011;59991;52.140;5.428;2022-08-11T04:50:07;4.70;;;4.22;;
72115;SDS011;59991;52.140;5.428;2022-08-11T04:53:21;4.68;;;4.30;;
72115;SDS011;59991;52.140;5.428;2022-08-11T04:54:53;5.60;;;5.10;;
72115;SDS011;59991;52.140;5.428;2022-08-11T04:56:11;5.30;;;4.80;;
72115;SDS011;59991;52.140;5.428;2022-08-11T04:57:08;8.73;;;5.78;;
72115;SDS011;59991;52.140;5.428;2022-08-11T04:59:10;7.88;;;5.22;;
72115;SDS011;59991;52.140;5.428;2022-08-11T05:00:15;4.90;;;4.50;;
72115;SDS011;59991;52.140;5.428;2022-08-11T05:01:19;5.88;;;5.30;;
72115;SDS011;59991;52.140;5.428;2022-08-11T05:04:03;6.78;;;5.03;;
72115;SDS011;59991;52.140;5.428;2022-08-11T05:05:34;4.90;;;4.50;;
72115;SDS011;59991;52.140;5.428;2022-08-11T05:06:42;4.97;;;4.63;;
72115;SDS011;59991;52.140;5.428;2022-08-11T05:12:55;6.80;;;5.57;;
72115;SDS011;59991;52.140;5.428;2022-08-11T05:15:02;9.05;;;5.03;;
72115;SDS011;59991;52.140;5.428;2022-08-11T05:17:11;6.03;;;4.82;;
72115;SDS011;59991;52.140;5.428;2022-08-11T05:18:09;5.72;;;5.22;;
72115;SDS011;59991;52.140;5.428;2022-08-11T05:19:04;6.90;;;5.93;;
72115;SDS011;59991;52.140;5.428;2022-08-11T05:19:55;10.43;;;5.43;;
72115;SDS011;59991;52.140;5.428;2022-08-11T05:20:46;7.57;;;5.65;;
72115;SDS011;59991;52.140;5.428;2022-08-11T05:21:40;5.63;;;5.13;;
72115;SDS011;59991;52.140;5.428;2022-08-11T05:22:37;7.75;;;6.03;;
72115;SDS011;59991;52.140;5.428;2022-08-11T05:23:45;5.82;;;5.22;;
72115;SDS011;59991;52.140;5.428;2022-08-11T05:25:42;5.50;;;5.00;;
72115;SDS011;59991;52.140;5.428;2022-08-11T05:26:55;7.32;;;5.70;;
72115;SDS011;59991;52.140;5.428;2022-08-11T05:28:12;7.50;;;6.03;;
72115;SDS011;59991;52.140;5.428;2022-08-11T05:29:22;6.85;;;5.65;;
72115;SDS011;59991;52.140;5.428;2022-08-11T05:30:14;8.02;;;5.88;;
72115;SDS011;59991;52.140;5.428;2022-08-11T05:31:06;6.95;;;5.28;;
72115;SDS011;59991;52.140;5.428;2022-08-11T05:32:00;6.78;;;5.30;;
72115;SDS011;59991;52.140;5.428;2022-08-11T05:33:58;7.25;;;6.22;;
72115;SDS011;59991;52.140;5.428;2022-08-11T05:34:50;9.13;;;6.55;;
72115;SDS011;59991;52.140;5.428;2022-08-11T05:35:31;8.13;;;6.30;;
72115;SDS011;59991;52.140;5.428;2022-08-11T05:37:59;10.65;;;6.70;;
72115;SDS011;59991;52.140;5.428;2022-08-11T05:38:55;7.20;;;6.35;;
72115;SDS011;59991;52.140;5.428;2022-08-11T05:39:48;7.68;;;6.80;;
72115;SDS011;59991;52.140;5.428;2022-08-11T05:40:48;8.30;;;7.50;;
72115;SDS011;59991;52.140;5.428;2022-08-11T05:41:41;7.45;;;6.75;;
72115;SDS011;59991;52.140;5.428;2022-08-11T05:42:31;8.05;;;6.53;;
72115;SDS011;59991;52.140;5.428;2022-08-11T05:43:23;10.88;;;5.78;;
72115;SDS011;59991;52.140;5.428;2022-08-11T05:44:34;7.97;;;6.03;;
72115;SDS011;59991;52.140;5.428;2022-08-11T05:46:45;6.05;;;5.55;;
72115;SDS011;59991;52.140;5.428;2022-08-11T05:47:36;6.53;;;5.97;;
72115;SDS011;59991;52.140;5.428;2022-08-11T05:48:31;6.85;;;6.28;;
72115;SDS011;59991;52.140;5.428;2022-08-11T05:49:23;5.97;;;5.38;;
72115;SDS011;59991;52.140;5.428;2022-08-11T05:50:17;7.70;;;6.10;;
72115;SDS011;59991;52.140;5.428;2022-08-11T05:51:10;9.38;;;6.25;;
72115;SDS011;59991;52.140;5.428;2022-08-11T05:52:00;8.25;;;7.45;;
72115;SDS011;59991;52.140;5.428;2022-08-11T05:53:02;6.55;;;5.95;;
72115;SDS011;59991;52.140;5.428;2022-08-11T05:53:58;7.00;;;6.40;;
72115;SDS011;59991;52.140;5.428;2022-08-11T05:55:01;7.28;;;6.55;;
72115;SDS011;59991;52.140;5.428;2022-08-11T05:55:53;8.88;;;5.97;;
72115;SDS011;59991;52.140;5.428;2022-08-11T05:56:45;6.93;;;6.28;;
72115;SDS011;59991;52.140;5.428;2022-08-11T05:57:21;8.35;;;6.80;;
72115;SDS011;59991;52.140;5.428;2022-08-11T05:58:16;7.43;;;6.72;;
72115;SDS011;59991;52.140;5.428;2022-08-11T05:58:49;6.70;;;6.13;;
72115;SDS011;59991;52.140;5.428;2022-08-11T05:59:23;12.90;;;6.10;;
72115;SDS011;59991;52.140;5.428;2022-08-11T05:59:57;6.70;;;5.45;;
72115;SDS011;59991;52.140;5.428;2022-08-11T06:00:49;8.13;;;6.35;;
72115;SDS011;59991;52.140;5.428;2022-08-11T06:02:04;8.15;;;6.80;;
72115;SDS011;59991;52.140;5.428;2022-08-11T06:02:45;7.47;;;6.78;;
72115;SDS011;59991;52.140;5.428;2022-08-11T06:03:20;8.57;;;6.93;;
72115;SDS011;59991;52.140;5.428;2022-08-11T06:03:56;12.07;;;7.45;;
72115;SDS011;59991;52.140;5.428;2022-08-11T06:04:49;7.03;;;5.63;;
72115;SDS011;59991;52.140;5.428;2022-08-11T06:05:35;7.43;;;6.78;;
72115;SDS011;59991;52.140;5.428;2022-08-11T06:06:14;6.63;;;6.03;;
72115;SDS011;59991;52.140;5.428;2022-08-11T06:07:29;6.50;;;5.88;;
72115;SDS011;59991;52.140;5.428;2022-08-11T06:08:26;7.03;;;6.43;;
72115;SDS011;59991;52.140;5.428;2022-08-11T06:09:00;9.80;;;5.93;;
72115;SDS011;59991;52.140;5.428;2022-08-11T06:09:33;7.50;;;6.25;;
72115;SDS011;59991;52.140;5.428;2022-08-11T06:10:05;9.32;;;6.68;;
72115;SDS011;59991;52.140;5.428;2022-08-11T06:11:01;6.43;;;5.82;;
72115;SDS011;59991;52.140;5.428;2022-08-11T06:12:16;7.07;;;6.45;;
72115;SDS011;59991;52.140;5.428;2022-08-11T06:12:53;8.88;;;6.07;;
72115;SDS011;59991;52.140;5.428;2022-08-11T06:13:26;7.53;;;6.70;;
72115;SDS011;59991;52.140;5.428;2022-08-11T06:13:58;7.03;;;6.35;;
72115;SDS011;59991;52.140;5.428;2022-08-11T06:14:33;7.28;;;6.50;;
72115;SDS011;59991;52.140;5.428;2022-08-11T06:15:11;9.20;;;6.13;;
72115;SDS011;59991;52.140;5.428;2022-08-11T06:15:47;6.75;;;6.18;;
72115;SDS011;59991;52.140;5.428;2022-08-11T06:16:22;7.43;;;6.32;;
72115;SDS011;59991;52.140;5.428;2022-08-11T06:17:20;6.93;;;6.28;;
72115;SDS011;59991;52.140;5.428;2022-08-11T06:17:54;9.10;;;6.70;;
72115;SDS011;59991;52.140;5.428;2022-08-11T06:18:27;7.72;;;6.90;;
72115;SDS011;59991;52.140;5.428;2022-08-11T06:19:00;8.38;;;7.53;;
72115;SDS011;59991;52.140;5.428;2022-08-11T06:19:34;7.38;;;6.75;;
72115;SDS011;59991;52.140;5.428;2022-08-11T06:20:10;8.18;;;6.72;;
72115;SDS011;59991;52.140;5.428;2022-08-11T06:21:07;7.40;;;6.68;;
72115;SDS011;59991;52.140;5.428;2022-08-11T06:21:44;8.70;;;6.07;;
72115;SDS011;59991;52.140;5.428;2022-08-11T06:22:20;7.32;;;6.25;;
72115;SDS011;59991;52.140;5.428;2022-08-11T06:22:56;8.95;;;7.18;;
72115;SDS011;59991;52.140;5.428;2022-08-11T06:23:32;7.13;;;6.53;;
72115;SDS011;59991;52.140;5.428;2022-08-11T06:24:09;7.30;;;6.63;;
72115;SDS011;59991;52.140;5.428;2022-08-11T06:24:42;10.77;;;5.55;;
72115;SDS011;59991;52.140;5.428;2022-08-11T06:25:29;9.20;;;6.88;;
72115;SDS011;59991;52.140;5.428;2022-08-11T06:26:04;9.00;;;7.18;;
72115;SDS011;59991;52.140;5.428;2022-08-11T06:26:46;7.50;;;6.40;;
72115;SDS011;59991;52.140;5.428;2022-08-11T06:27:40;10.40;;;6.32;;
72115;SDS011;59991;52.140;5.428;2022-08-11T06:28:14;8.13;;;6.57;;
72115;SDS011;59991;52.140;5.428;2022-08-11T06:28:51;6.75;;;5.90;;
72115;SDS011;59991;52.140;5.428;2022-08-11T06:30:35;8.90;;;6.10;;
72115;SDS011;59991;52.140;5.428;2022-08-11T06:31:27;11.70;;;6.90;;
72115;SDS011;59991;52.140;5.428;2022-08-11T06:32:00;11.10;;;7.22;;
72115;SDS011;59991;52.140;5.428;2022-08-11T06:32:33;7.47;;;6.63;;
72115;SDS011;59991;52.140;5.428;2022-08-11T06:33:16;6.88;;;6.20;;
72115;SDS011;59991;52.140;5.428;2022-08-11T06:33:53;8.27;;;7.15;;
72115;SDS011;59991;52.140;5.428;2022-08-11T06:36:15;6.97;;;6.25;;
72115;SDS011;59991;52.140;5.428;2022-08-11T06:36:59;7.93;;;6.18;;
72115;SDS011;59991;52.140;5.428;2022-08-11T06:37:40;6.47;;;5.90;;
72115;SDS011;59991;52.140;5.428;2022-08-11T06:38:35;8.32;;;6.40;;
72115;SDS011;59991;52.140;5.428;2022-08-11T06:39:21;7.60;;;5.97;;
72115;SDS011;59991;52.140;5.428;2022-08-11T06:40:57;9.70;;;6.28;;
72115;SDS011;59991;52.140;5.428;2022-08-11T06:41:51;7.07;;;6.45;;
72115;SDS011;59991;52.140;5.428;2022-08-11T06:42:31;6.38;;;5.75;;
72115;SDS011;59991;52.140;5.428;2022-08-11T06:43:14;6.87;;;6.00;;
72115;SDS011;59991;52.140;5.428;2022-08-11T06:43:52;7.07;;;6.20;;
72115;SDS011;59991;52.140;5.428;2022-08-11T06:44:40;7.28;;;6.57;;
72115;SDS011;59991;52.140;5.428;2022-08-11T06:45:29;10.32;;;7.18;;
72115;SDS011;59991;52.140;5.428;2022-08-11T06:46:31;9.38;;;6.20;;
72115;SDS011;59991;52.140;5.428;2022-08-11T06:47:08;8.32;;;6.30;;
72115;SDS011;59991;52.140;5.428;2022-08-11T06:47:43;12.05;;;6.45;;
72115;SDS011;59991;52.140;5.428;2022-08-11T06:48:18;10.07;;;6.28;;
72115;SDS011;59991;52.140;5.428;2022-08-11T06:49:11;8.75;;;6.15;;
72115;SDS011;59991;52.140;5.428;2022-08-11T06:50:03;7.07;;;5.45;;
72115;SDS011;59991;52.140;5.428;2022-08-11T06:51:13;7.30;;;5.50;;
72115;SDS011;59991;52.140;5.428;2022-08-11T06:51:46;8.57;;;5.97;;
72115;SDS011;59991;52.140;5.428;2022-08-11T06:52:26;8.60;;;6.43;;
72115;SDS011;59991;52.140;5.428;2022-08-11T06:53:16;8.10;;;6.32;;
72115;SDS011;59991;52.140;5.428;2022-08-11T06:53:50;10.75;;;6.30;;
72115;SDS011;59991;52.140;5.428;2022-08-11T06:54:35;7.68;;;5.97;;
72115;SDS011;59991;52.140;5.428;2022-08-11T06:55:12;8.98;;;6.82;;
72115;SDS011;59991;52.140;5.428;2022-08-11T06:56:26;6.25;;;5.60;;
72115;SDS011;59991;52.140;5.428;2022-08-11T06:57:39;7.55;;;5.85;;
72115;SDS011;59991;52.140;5.428;2022-08-11T06:58:36;6.57;;;5.28;;
72115;SDS011;59991;52.140;5.428;2022-08-11T06:59:28;6.60;;;5.40;;
72115;SDS011;59991;52.140;5.428;2022-08-11T07:00:19;5.68;;;5.20;;
72115;SDS011;59991;52.140;5.428;2022-08-11T07:01:00;9.32;;;4.82;;
72115;SDS011;59991;52.140;5.428;2022-08-11T07:01:39;6.25;;;5.68;;
72115;SDS011;59991;52.140;5.428;2022-08-11T07:02:48;5.97;;;5.38;;
72115;SDS011;59991;52.140;5.428;2022-08-11T07:03:43;6.15;;;5.55;;
72115;SDS011;59991;52.140;5.428;2022-08-11T07:05:40;5.28;;;4.85;;
72115;SDS011;59991;52.140;5.428;2022-08-11T07:07:39;6.22;;;4.53;;
72115;SDS011;59991;52.140;5.428;2022-08-11T07:12:44;5.80;;;5.30;;
72115;SDS011;59991;52.140;5.428;2022-08-11T07:13:37;5.47;;;4.90;;
72115;SDS011;59991;52.140;5.428;2022-08-11T07:14:30;5.28;;;4.32;;
72115;SDS011;59991;52.140;5.428;2022-08-11T07:15:22;5.85;;;4.22;;
72115;SDS011;59991;52.140;5.428;2022-08-11T07:16:33;4.70;;;4.30;;
72115;SDS011;59991;52.140;5.428;2022-08-11T07:17:13;4.57;;;4.18;;
72115;SDS011;59991;52.140;5.428;2022-08-11T07:17:49;4.85;;;4.38;;
72115;SDS011;59991;52.140;5.428;2022-08-11T07:18:42;5.93;;;4.63;;
72115;SDS011;59991;52.140;5.428;2022-08-11T07:19:35;6.05;;;4.57;;
72115;SDS011;59991;52.140;5.428;2022-08-11T07:20:27;5.38;;;3.85;;
72115;SDS011;59991;52.140;5.428;2022-08-11T07:22:36;9.38;;;4.28;;
72115;SDS011;59991;52.140;5.428;2022-08-11T07:23:40;9.07;;;5.03;;
72115;SDS011;59991;52.140;5.428;2022-08-11T07:24:40;6.85;;;4.70;;
72115;SDS011;59991;52.140;5.428;2022-08-11T07:25:38;5.88;;;4.13;;
72115;SDS011;59991;52.140;5.428;2022-08-11T07:26:30;7.70;;;4.50;;
72115;SDS011;59991;52.140;5.428;2022-08-11T07:27:36;13.88;;;4.13;;
72115;SDS011;59991;52.140;5.428;2022-08-11T07:28:32;6.93;;;4.60;;
72115;SDS011;59991;52.140;5.428;2022-08-11T07:30:38;5.47;;;4.40;;
72115;SDS011;59991;52.140;5.428;2022-08-11T07:31:16;5.40;;;4.78;;
72115;SDS011;59991;52.140;5.428;2022-08-11T07:32:15;5.38;;;3.97;;
72115;SDS011;59991;52.140;5.428;2022-08-11T07:32:57;4.60;;;4.20;;
72115;SDS011;59991;52.140;5.428;2022-08-11T07:34:23;5.28;;;4.50;;
72115;SDS011;59991;52.140;5.428;2022-08-11T07:35:01;6.35;;;3.95;;
72115;SDS011;59991;52.140;5.428;2022-08-11T07:35:59;8.18;;;4.93;;
72115;SDS011;59991;52.140;5.428;2022-08-11T07:36:30;5.30;;;4.80;;
72115;SDS011;59991;52.140;5.428;2022-08-11T07:37:09;4.37;;;3.97;;
72115;SDS011;59991;52.140;5.428;2022-08-11T07:38:04;5.97;;;4.28;;
72115;SDS011;59991;52.140;5.428;2022-08-11T07:38:44;5.82;;;4.70;;
72115;SDS011;59991;52.140;5.428;2022-08-11T07:40:15;8.07;;;4.47;;
72115;SDS011;59991;52.140;5.428;2022-08-11T07:40:51;6.03;;;4.50;;
72115;SDS011;59991;52.140;5.428;2022-08-11T07:41:23;7.05;;;4.20;;
72115;SDS011;59991;52.140;5.428;2022-08-11T07:41:56;5.20;;;4.40;;
72115;SDS011;59991;52.140;5.428;2022-08-11T07:42:30;5.28;;;4.85;;
72115;SDS011;59991;52.140;5.428;2022-08-11T07:43:06;6.00;;;4.57;;
72115;SDS011;59991;52.140;5.428;2022-08-11T07:43:38;5.40;;;4.97;;
72115;SDS011;59991;52.140;5.428;2022-08-11T07:44:11;9.65;;;4.65;;
72115;SDS011;59991;52.140;5.428;2022-08-11T07:44:52;11.48;;;4.85;;
72115;SDS011;59991;52.140;5.428;2022-08-11T07:45:45;5.07;;;4.38;;
72115;SDS011;59991;52.140;5.428;2022-08-11T07:46:39;5.57;;;4.65;;